createdAt,value
2019-04-07T00:01:43.387Z,7.22
2019-04-07T00:04:14.585Z,7.32
2019-04-07T00:06:45.523Z,7.38
2019-04-07T00:09:16.589Z,7.45
2019-04-07T00:11:47.563Z,7.54
2019-04-07T00:14:18.350Z,7.61
2019-04-07T00:16:49.524Z,7.66
2019-04-07T00:19:20.876Z,7.72
2019-04-07T00:21:51.768Z,7.78
2019-04-07T00:24:22.645Z,7.78
2019-04-07T00:26:54.233Z,7.80
2019-04-07T00:29:25.119Z,7.81
2019-04-07T00:31:56.412Z,7.81
2019-04-07T00:34:27.628Z,7.81
2019-04-07T00:37:00.003Z,7.76
2019-04-07T00:39:32.316Z,7.78
2019-04-07T00:42:03.839Z,7.58
2019-04-07T00:44:35.201Z,7.58
2019-04-07T00:47:06.340Z,7.64
2019-04-07T00:49:37.104Z,7.59
2019-04-07T00:52:08.404Z,7.66
2019-04-07T00:54:40.835Z,7.61
2019-04-07T00:57:13.033Z,7.66
2019-04-07T00:59:44.089Z,7.69
2019-04-07T01:02:15.739Z,7.68
2019-04-07T01:04:47.230Z,7.62
2019-04-07T01:07:18.324Z,7.60
2019-04-07T01:09:49.503Z,7.62
2019-04-07T01:12:20.469Z,7.62
2019-04-07T01:14:51.200Z,7.60
2019-04-07T01:17:22.490Z,7.59
2019-04-07T01:19:53.573Z,7.58
2019-04-07T01:22:24.528Z,7.58
2019-04-07T01:24:55.982Z,7.58
2019-04-07T01:27:27.025Z,7.58
2019-04-07T01:29:58.036Z,7.47
2019-04-07T01:32:29.152Z,7.28
2019-04-07T01:35:00.476Z,7.06
2019-04-07T01:37:31.665Z,6.95
2019-04-07T01:40:03.114Z,6.91
2019-04-07T01:43:05.299Z,6.94
2019-04-07T01:46:11.049Z,7.04
2019-04-07T01:48:59.392Z,7.07
2019-04-07T01:51:58.047Z,7.06
2019-04-07T01:54:36.209Z,7.05
2019-04-07T01:57:23.750Z,7.07
2019-04-07T02:00:09.615Z,7.02
2019-04-07T02:02:58.284Z,7.06
2019-04-07T02:05:58.590Z,7.13
2019-04-07T02:08:46.557Z,7.09
2019-04-07T02:11:39.756Z,7.10
2019-04-07T02:14:45.409Z,7.16
2019-04-07T02:17:25.220Z,7.19
2019-04-07T02:20:20.718Z,7.25
2019-04-07T02:23:16.476Z,7.31
2019-04-07T02:25:58.175Z,7.35
2019-04-07T02:29:00.007Z,7.35
2019-04-07T02:31:57.062Z,7.35
2019-04-07T02:34:34.781Z,7.33
2019-04-07T02:37:27.937Z,7.29
2019-04-07T02:40:16.368Z,7.28
2019-04-07T02:42:52.536Z,7.28
2019-04-07T02:45:47.938Z,7.30
2019-04-07T02:48:51.219Z,7.33
2019-04-07T02:51:44.293Z,7.37
2019-04-07T02:54:24.821Z,7.41
2019-04-07T02:57:08.056Z,7.45
2019-04-07T02:59:55.898Z,7.47
2019-04-07T03:02:33.477Z,7.50
2019-04-07T03:05:22.214Z,7.53
2019-04-07T03:08:12.110Z,7.56
2019-04-07T03:11:08.179Z,7.58
2019-04-07T03:13:54.532Z,7.60
2019-04-07T03:16:53.576Z,7.60
2019-04-07T03:19:33.299Z,7.59
2019-04-07T03:22:25.969Z,7.60
2019-04-07T03:25:20.637Z,7.57
2019-04-07T03:28:06.817Z,7.49
2019-04-07T03:31:04.098Z,7.45
2019-04-07T03:33:48.085Z,7.56
2019-04-07T03:37:02.979Z,7.60
2019-04-07T03:39:34.302Z,7.61
2019-04-07T03:42:34.332Z,7.61
2019-04-07T03:45:30.836Z,7.63
2019-04-07T03:48:24.646Z,7.66
2019-04-07T03:51:15.000Z,7.70
2019-04-07T03:53:56.733Z,7.76
2019-04-07T03:56:37.591Z,7.78
2019-04-07T03:59:27.578Z,7.79
2019-04-07T04:02:16.309Z,7.82
2019-04-07T04:04:58.468Z,7.81
2019-04-07T04:07:38.774Z,7.83
2019-04-07T04:10:17.769Z,7.84
2019-04-07T04:13:11.078Z,7.87
2019-04-07T04:15:46.918Z,7.86
2019-04-07T04:18:18.378Z,7.84
2019-04-07T04:20:50.441Z,7.83
2019-04-07T04:23:22.010Z,7.83
2019-04-07T04:25:53.850Z,7.82
2019-04-07T04:28:24.797Z,7.77
2019-04-07T04:30:56.690Z,7.76
2019-04-07T04:33:27.749Z,7.77
2019-04-07T04:35:59.075Z,7.77
2019-04-07T04:38:30.241Z,7.80
2019-04-07T04:41:02.868Z,7.84
2019-04-07T04:43:34.083Z,7.87
2019-04-07T04:46:08.619Z,7.89
2019-04-07T04:48:38.777Z,7.86
2019-04-07T04:51:09.875Z,7.82
2019-04-07T04:53:40.784Z,7.82
2019-04-07T04:56:11.661Z,7.83
2019-04-07T04:58:42.573Z,7.88
2019-04-07T05:01:13.419Z,7.90
2019-04-07T05:03:44.435Z,7.91
2019-04-07T05:06:16.243Z,7.88
2019-04-07T05:08:47.214Z,7.87
2019-04-07T05:11:18.021Z,7.87
2019-04-07T05:13:48.946Z,7.93
2019-04-07T05:16:19.812Z,7.97
2019-04-07T05:18:50.771Z,7.99
2019-04-07T05:21:21.653Z,7.97
2019-04-07T05:23:52.543Z,7.98
2019-04-07T05:26:24.056Z,8.02
2019-04-07T05:28:55.076Z,8.02
2019-04-07T05:31:25.936Z,8.07
2019-04-07T05:33:57.461Z,8.14
2019-04-07T05:36:28.331Z,8.11
2019-04-07T05:38:59.905Z,8.08
2019-04-07T05:41:31.215Z,8.12
2019-04-07T05:44:02.558Z,8.11
2019-04-07T05:46:33.597Z,8.13
2019-04-07T05:49:05.366Z,8.18
2019-04-07T05:51:37.007Z,8.20
2019-04-07T05:54:08.097Z,8.27
2019-04-07T05:56:39.278Z,8.11
2019-04-07T05:59:12.924Z,8.18
2019-04-07T06:01:42.830Z,8.22
2019-04-07T06:04:16.882Z,8.27
2019-04-07T06:06:46.315Z,8.33
2019-04-07T06:09:19.740Z,8.38
2019-04-07T06:11:50.137Z,8.44
2019-04-07T06:14:21.434Z,8.47
2019-04-07T06:16:54.261Z,8.49
2019-04-07T06:19:25.035Z,8.51
2019-04-07T06:21:55.938Z,8.54
2019-04-07T06:24:30.884Z,8.54
2019-04-07T06:26:59.810Z,8.56
2019-04-07T06:29:30.625Z,8.44
2019-04-07T06:32:03.614Z,8.46
2019-04-07T06:34:34.257Z,8.49
2019-04-07T06:37:05.642Z,8.44
2019-04-07T06:39:37.340Z,8.43
2019-04-07T06:42:08.527Z,8.45
2019-04-07T06:44:40.013Z,8.47
2019-04-07T06:47:31.330Z,8.40
2019-04-07T06:50:30.359Z,8.42
2019-04-07T06:53:23.534Z,8.51
2019-04-07T06:56:26.200Z,8.55
2019-04-07T06:59:19.145Z,8.55
2019-04-07T07:02:12.099Z,8.55
2019-04-07T07:05:05.541Z,8.58
2019-04-07T07:07:58.429Z,8.58
2019-04-07T07:10:53.154Z,8.65
2019-04-07T07:13:52.125Z,8.72
2019-04-07T07:16:43.829Z,8.66
2019-04-07T07:19:28.566Z,8.51
2019-04-07T07:22:21.123Z,8.55
2019-04-07T07:24:55.729Z,8.63
2019-04-07T07:27:25.111Z,8.67
2019-04-07T07:29:56.631Z,8.67
2019-04-07T07:32:28.092Z,8.59
2019-04-07T07:34:59.550Z,8.45
2019-04-07T07:37:31.088Z,8.38
2019-04-07T07:40:05.828Z,8.38
2019-04-07T07:42:44.147Z,8.44
2019-04-07T07:45:48.321Z,8.53
2019-04-07T07:48:18.395Z,8.56
2019-04-07T07:50:50.091Z,8.60
2019-04-07T07:53:23.685Z,8.65
2019-04-07T07:55:53.749Z,8.67
2019-04-07T07:58:28.038Z,8.68
2019-04-07T08:01:00.178Z,8.72
2019-04-07T08:03:30.345Z,8.73
2019-04-07T08:06:04.662Z,8.73
2019-04-07T08:08:34.270Z,8.73
2019-04-07T08:11:05.572Z,8.74
2019-04-07T08:13:42.050Z,8.75
2019-04-07T08:16:09.788Z,8.78
2019-04-07T08:18:44.610Z,8.82
2019-04-07T08:21:16.572Z,8.86
2019-04-07T08:23:45.843Z,8.88
2019-04-07T08:26:16.773Z,8.89
2019-04-07T08:28:48.213Z,8.93
2019-04-07T08:31:21.456Z,8.95
2019-04-07T08:33:52.771Z,8.97
2019-04-07T08:36:23.853Z,8.97
2019-04-07T08:38:56.091Z,8.96
2019-04-07T08:41:27.795Z,8.99
2019-04-07T08:43:58.635Z,9.04
2019-04-07T08:46:35.206Z,9.08
2019-04-07T08:49:04.387Z,9.11
2019-04-07T08:51:36.148Z,9.16
2019-04-07T08:54:07.379Z,9.22
2019-04-07T08:56:38.754Z,9.23
2019-04-07T08:59:12.249Z,9.24
2019-04-07T09:01:42.217Z,9.30
2019-04-07T09:04:16.514Z,9.37
2019-04-07T09:06:45.733Z,9.39
2019-04-07T09:09:16.921Z,9.43
2019-04-07T09:11:48.056Z,9.46
2019-04-07T09:14:20.290Z,9.53
2019-04-07T09:17:32.197Z,9.63
2019-04-07T09:20:23.828Z,9.72
2019-04-07T09:23:10.290Z,9.84
2019-04-07T09:25:59.402Z,9.92
2019-04-07T09:28:41.986Z,10.00
2019-04-07T09:31:36.316Z,10.06
2019-04-07T09:34:20.090Z,10.13
2019-04-07T09:37:18.538Z,10.19
2019-04-07T09:40:01.038Z,10.24
2019-04-07T09:42:47.302Z,10.27
2019-04-07T09:45:39.433Z,10.31
2019-04-07T09:48:21.005Z,10.34
2019-04-07T09:51:26.905Z,10.31
2019-04-07T09:54:32.391Z,10.34
2019-04-07T09:57:30.303Z,10.29
2019-04-07T10:00:22.854Z,10.38
2019-04-07T10:02:58.110Z,10.45
2019-04-07T10:05:48.688Z,10.52
2019-04-07T10:08:30.390Z,10.55
2019-04-07T10:11:20.851Z,10.58
2019-04-07T10:14:08.709Z,10.64
2019-04-07T10:16:51.746Z,10.77
2019-04-07T10:19:49.996Z,10.72
2019-04-07T10:22:46.193Z,10.79
2019-04-07T10:25:48.415Z,10.91
2019-04-07T10:28:39.165Z,10.86
2019-04-07T10:31:29.462Z,10.92
2019-04-07T10:34:28.556Z,11.06
2019-04-07T10:37:34.578Z,10.96
2019-04-07T10:40:34.660Z,11.19
2019-04-07T10:43:18.429Z,11.11
2019-04-07T10:46:02.352Z,11.17
2019-04-07T10:48:48.606Z,11.37
2019-04-07T10:51:37.430Z,11.50
2019-04-07T10:54:16.153Z,11.39
2019-04-07T10:57:15.595Z,11.60
2019-04-07T11:00:04.704Z,11.44
2019-04-07T11:02:44.183Z,11.53
2019-04-07T11:05:32.816Z,11.45
2019-04-07T11:08:21.365Z,11.41
2019-04-07T11:11:10.002Z,11.51
2019-04-07T11:13:58.800Z,11.67
2019-04-07T11:16:51.439Z,11.72
2019-04-07T11:19:40.488Z,11.85
2019-04-07T11:22:29.647Z,11.80
2019-04-07T11:25:34.895Z,11.86
2019-04-07T11:28:24.212Z,11.97
2019-04-07T11:31:21.130Z,12.00
2019-04-07T11:34:17.464Z,12.09
2019-04-07T11:37:02.082Z,12.25
2019-04-07T11:39:54.960Z,12.24
2019-04-07T11:42:57.817Z,12.21
2019-04-07T11:45:39.003Z,12.16
2019-04-07T11:48:19.693Z,12.14
2019-04-07T11:51:13.025Z,12.40
2019-04-07T11:54:09.671Z,12.52
2019-04-07T11:57:03.319Z,12.35
2019-04-07T11:59:47.545Z,12.67
2019-04-07T12:02:44.663Z,12.64
2019-04-07T12:05:22.408Z,12.75
2019-04-07T12:08:20.714Z,12.80
2019-04-07T12:11:28.832Z,12.73
2019-04-07T12:14:19.160Z,12.73
2019-04-07T12:17:21.126Z,12.95
2019-04-07T12:19:59.637Z,13.08
2019-04-07T12:22:55.317Z,13.13
2019-04-07T12:25:46.084Z,13.00
2019-04-07T12:28:33.403Z,13.17
2019-04-07T12:31:26.920Z,13.25
2019-04-07T12:34:12.076Z,13.55
2019-04-07T12:37:07.908Z,13.62
2019-04-07T12:39:50.744Z,13.70
2019-04-07T12:42:38.508Z,13.92
2019-04-07T12:45:22.377Z,14.04
2019-04-07T12:47:59.563Z,14.01
2019-04-07T12:51:01.995Z,13.95
2019-04-07T12:53:55.363Z,13.68
2019-04-07T12:56:46.817Z,13.56
2019-04-07T12:59:39.635Z,13.57
2019-04-07T13:02:28.541Z,13.37
2019-04-07T13:05:18.636Z,13.28
2019-04-07T13:08:02.690Z,13.30
2019-04-07T13:10:42.982Z,13.32
2019-04-07T13:13:34.094Z,13.24
2019-04-07T13:16:27.864Z,13.00
2019-04-07T13:19:16.647Z,12.87
2019-04-07T13:22:06.728Z,12.86
2019-04-07T13:24:48.532Z,13.02
2019-04-07T13:27:50.141Z,13.03
2019-04-07T13:30:27.107Z,13.05
2019-04-07T13:33:19.443Z,12.73
2019-04-07T13:36:02.128Z,12.87
2019-04-07T13:38:44.565Z,12.87
2019-04-07T13:41:44.862Z,12.58
2019-04-07T13:44:19.728Z,12.39
2019-04-07T13:47:09.459Z,12.34
2019-04-07T13:50:08.445Z,12.25
2019-04-07T13:52:59.210Z,12.13
2019-04-07T13:55:47.697Z,12.30
2019-04-07T13:58:46.718Z,12.39
2019-04-07T14:01:35.779Z,12.33
2019-04-07T14:04:24.164Z,12.37
2019-04-07T14:07:02.469Z,12.44
2019-04-07T14:09:44.152Z,12.49
2019-04-07T14:12:23.740Z,12.54
2019-04-07T14:15:26.022Z,12.38
2019-04-07T14:18:07.712Z,12.30
2019-04-07T14:20:47.530Z,12.38
2019-04-07T14:23:47.027Z,12.48
2019-04-07T14:26:43.466Z,12.56
2019-04-07T14:29:50.228Z,12.50
2019-04-07T14:32:40.038Z,12.58
2019-04-07T14:35:42.154Z,12.53
2019-04-07T14:38:45.544Z,12.34
2019-04-07T14:41:33.264Z,12.45
2019-04-07T14:44:22.532Z,12.52
2019-04-07T14:47:21.841Z,12.44
2019-04-07T14:50:26.772Z,12.50
2019-04-07T14:53:07.750Z,12.55
2019-04-07T14:56:05.822Z,12.53
2019-04-07T14:58:53.849Z,12.41
2019-04-07T15:01:53.635Z,12.39
2019-04-07T15:04:31.318Z,12.29
2019-04-07T15:07:12.877Z,12.32
2019-04-07T15:09:53.476Z,12.45
2019-04-07T15:12:33.876Z,12.36
2019-04-07T15:15:08.786Z,12.37
2019-04-07T15:17:37.561Z,12.51
2019-04-07T15:20:11.638Z,12.53
2019-04-07T15:22:41.375Z,12.53
2019-04-07T15:25:13.700Z,12.58
2019-04-07T15:27:44.595Z,12.63
2019-04-07T15:30:16.842Z,12.69
2019-04-07T15:32:48.383Z,12.70
2019-04-07T15:35:20.105Z,12.77
2019-04-07T15:37:51.932Z,12.80
2019-04-07T15:40:23.511Z,12.92
2019-04-07T15:42:54.270Z,12.92
2019-04-07T15:45:25.170Z,12.91
2019-04-07T15:47:56.471Z,12.92
2019-04-07T15:50:30.143Z,12.94
2019-04-07T15:53:00.044Z,12.98
2019-04-07T15:55:43.966Z,13.03
2019-04-07T15:58:04.218Z,13.05
2019-04-07T16:00:35.363Z,13.02
2019-04-07T16:03:07.448Z,13.02
2019-04-07T16:05:42.410Z,13.02
2019-04-07T16:08:11.670Z,12.96
2019-04-07T16:10:43.493Z,12.90
2019-04-07T16:13:15.238Z,12.83
2019-04-07T16:15:48.380Z,12.80
2019-04-07T16:18:19.009Z,12.81
2019-04-07T16:20:50.691Z,12.80
2019-04-07T16:23:22.176Z,12.80
2019-04-07T16:25:54.980Z,12.75
2019-04-07T16:28:27.423Z,12.68
2019-04-07T16:30:58.594Z,12.61
2019-04-07T16:33:32.566Z,12.48
2019-04-07T16:36:02.029Z,12.34
2019-04-07T16:38:33.136Z,12.26
2019-04-07T16:41:04.656Z,12.27
2019-04-07T16:43:37.672Z,12.32
2019-04-07T16:46:08.840Z,12.28
2019-04-07T16:48:40.382Z,12.28
2019-04-07T16:51:11.326Z,12.15
2019-04-07T16:53:43.346Z,12.16
2019-04-07T16:56:14.800Z,12.20
2019-04-07T16:58:46.088Z,12.18
2019-04-07T17:01:17.423Z,12.16
2019-04-07T17:03:48.832Z,12.14
2019-04-07T17:06:19.947Z,12.14
2019-04-07T17:08:52.875Z,12.13
2019-04-07T17:11:23.742Z,12.18
2019-04-07T17:13:54.845Z,12.17
2019-04-07T17:16:25.711Z,12.20
2019-04-07T17:18:57.554Z,12.22
2019-04-07T17:21:28.839Z,12.18
2019-04-07T17:23:59.735Z,12.19
2019-04-07T17:26:30.846Z,12.16
2019-04-07T17:29:02.073Z,12.09
2019-04-07T17:31:33.587Z,12.03
2019-04-07T17:34:09.754Z,12.01
2019-04-07T17:36:39.342Z,12.03
2019-04-07T17:39:18.841Z,11.93
2019-04-07T17:41:50.837Z,11.84
2019-04-07T17:44:49.190Z,11.74
2019-04-07T17:47:57.067Z,11.54
2019-04-07T17:50:46.333Z,11.43
2019-04-07T17:53:38.135Z,11.41
2019-04-07T17:56:30.336Z,11.43
2019-04-07T17:59:30.310Z,11.46
2019-04-07T18:02:12.517Z,11.46
2019-04-07T18:05:02.413Z,11.49
2019-04-07T18:07:51.876Z,11.55
2019-04-07T18:10:41.244Z,11.53
2019-04-07T18:13:42.017Z,11.53
2019-04-07T18:16:35.283Z,11.50
2019-04-07T18:19:37.618Z,11.41
2019-04-07T18:22:42.525Z,11.37
2019-04-07T18:25:35.281Z,11.43
2019-04-07T18:28:31.726Z,11.43
2019-04-07T18:31:25.206Z,11.33
2019-04-07T18:34:18.535Z,11.37
2019-04-07T18:37:16.891Z,11.35
2019-04-07T18:40:09.503Z,11.31
2019-04-07T18:43:13.845Z,11.18
2019-04-07T18:46:09.032Z,11.18
2019-04-07T18:48:53.234Z,11.05
2019-04-07T18:52:02.620Z,10.94
2019-04-07T18:54:53.157Z,10.92
2019-04-07T18:57:52.213Z,10.95
2019-04-07T19:00:41.401Z,10.91
2019-04-07T19:03:27.681Z,10.80
2019-04-07T19:06:32.206Z,10.76
2019-04-07T19:09:11.140Z,10.79
2019-04-07T19:12:10.543Z,10.80
2019-04-07T19:14:52.267Z,10.77
2019-04-07T19:17:46.925Z,10.72
2019-04-07T19:20:38.338Z,10.70
2019-04-07T19:23:21.630Z,10.76
2019-04-07T19:26:10.428Z,10.73
2019-04-07T19:28:51.831Z,10.62
2019-04-07T19:31:30.962Z,10.64
2019-04-07T19:34:20.721Z,10.58
2019-04-07T19:37:09.068Z,10.64
2019-04-07T19:40:02.872Z,10.69
2019-04-07T19:42:52.136Z,10.61
2019-04-07T19:45:42.100Z,10.62
2019-04-07T19:48:40.486Z,10.60
2019-04-07T19:51:32.717Z,10.65
2019-04-07T19:54:15.366Z,10.57
2019-04-07T19:57:04.828Z,10.52
2019-04-07T20:00:00.650Z,10.53
2019-04-07T20:02:49.585Z,10.51
2019-04-07T20:05:38.691Z,10.53
2019-04-07T20:08:32.432Z,10.54
2019-04-07T20:11:39.876Z,10.44
2019-04-07T20:14:28.459Z,10.49
2019-04-07T20:17:09.664Z,10.45
2019-04-07T20:20:02.181Z,10.50
2019-04-07T20:22:57.000Z,10.48
2019-04-07T20:25:55.376Z,10.44
2019-04-07T20:28:45.265Z,10.41
2019-04-07T20:31:39.449Z,10.40
2019-04-07T20:34:36.517Z,10.34
2019-04-07T20:37:27.565Z,10.29
2019-04-07T20:40:23.940Z,10.26
2019-04-07T20:43:17.557Z,10.35
2019-04-07T20:46:20.357Z,10.37
2019-04-07T20:49:08.543Z,10.36
2019-04-07T20:51:58.460Z,10.37
2019-04-07T20:54:54.421Z,10.37
2019-04-07T20:57:46.312Z,10.36
2019-04-07T21:00:38.154Z,10.36
2019-04-07T21:03:29.132Z,10.35
2019-04-07T21:06:18.775Z,10.28
2019-04-07T21:09:02.775Z,10.24
2019-04-07T21:11:47.466Z,10.20
2019-04-07T21:14:34.722Z,10.20
2019-04-07T21:17:40.783Z,10.17
2019-04-07T21:20:18.577Z,10.20
2019-04-07T21:23:09.220Z,10.18
2019-04-07T21:25:48.945Z,10.28
2019-04-07T21:28:43.858Z,10.24
2019-04-07T21:31:36.574Z,10.19
2019-04-07T21:34:17.341Z,10.21
2019-04-07T21:37:00.416Z,10.10
2019-04-07T21:39:56.825Z,10.19
2019-04-07T21:42:52.030Z,10.24
2019-04-07T21:45:45.701Z,10.19
2019-04-07T21:48:47.545Z,10.18
2019-04-07T21:51:46.590Z,10.17
2019-04-07T21:54:23.437Z,10.16
2019-04-07T21:57:17.217Z,10.18
2019-04-07T22:00:10.506Z,10.13
2019-04-07T22:03:05.511Z,10.16
2019-04-07T22:05:58.008Z,10.17
2019-04-07T22:08:33.160Z,10.16
2019-04-07T22:11:04.128Z,10.13
2019-04-07T22:13:35.563Z,10.11
2019-04-07T22:16:08.017Z,10.11
2019-04-07T22:18:39.426Z,10.13
2019-04-07T22:21:11.765Z,10.11
2019-04-07T22:23:42.570Z,10.10
2019-04-07T22:26:17.621Z,10.10
2019-04-07T22:28:47.042Z,10.13
2019-04-07T22:31:24.816Z,10.15
2019-04-07T22:33:59.165Z,10.11
2019-04-07T22:36:28.266Z,10.00
2019-04-07T22:39:02.069Z,10.05
2019-04-07T22:41:33.654Z,10.01
2019-04-07T22:44:05.104Z,9.98
2019-04-07T22:46:36.004Z,9.99
2019-04-07T22:49:07.154Z,9.86
2019-04-07T22:51:38.175Z,9.91
2019-04-07T22:54:09.970Z,9.91
2019-04-07T22:56:42.464Z,9.94
2019-04-07T22:59:13.338Z,10.00
2019-04-07T23:01:44.310Z,9.95
2019-04-07T23:04:16.088Z,9.95
2019-04-07T23:06:46.981Z,9.94
2019-04-07T23:09:17.896Z,9.98
2019-04-07T23:11:48.863Z,9.97
2019-04-07T23:14:19.936Z,10.01
2019-04-07T23:16:51.844Z,9.86
2019-04-07T23:19:22.825Z,9.87
2019-04-07T23:21:53.779Z,9.88
2019-04-07T23:24:24.771Z,9.85
2019-04-07T23:26:56.465Z,9.88
2019-04-07T23:29:28.287Z,9.90
2019-04-07T23:31:59.764Z,9.81
2019-04-07T23:34:31.190Z,9.81
2019-04-07T23:37:02.995Z,9.84
2019-04-07T23:39:33.860Z,9.78
2019-04-07T23:42:05.611Z,9.81
2019-04-07T23:44:37.314Z,9.79
2019-04-07T23:47:08.358Z,9.76
2019-04-07T23:49:39.154Z,9.76
2019-04-07T23:52:11.024Z,9.79
2019-04-07T23:54:41.946Z,9.75
2019-04-07T23:57:13.429Z,9.75
2019-04-07T23:59:44.483Z,9.72
